Time;durP1;ratioP1;P1;durP2;ratioP2;P2;SDS_P1;SDS_P2;PMS_P1;PMS_P2;Temp;Humidity;BMP_temperature;BMP_pressure;BME280_temperature;BME280_humidity;BME280_pressure;Samples;Min_cycle;Max_cycle;Signal;HPM_P1;HPM_P2
2023/07/16 00:01:39;;;;;;;8.27;7.13;;;;;;;;;;735365;187;912545;-59
2023/07/16 00:04:04;;;;;;;9.13;6.97;;;;;;;;;;737707;188;886931;-61
2023/07/16 00:06:30;;;;;;;18.60;6.93;;;;;;;;;;726162;193;941276;-60
2023/07/16 00:08:56;;;;;;;10.30;7.17;;;;;;;;;;720028;191;914050;-61
2023/07/16 00:11:22;;;;;;;9.80;7.20;;;;;;;;;;738400;187;914548;-61
2023/07/16 00:13:48;;;;;;;12.73;7.80;;;;;;;;;;741830;188;914102;-62
2023/07/16 00:16:14;;;;;;;8.87;8.00;;;;;;;;;;726500;188;918997;-60
2023/07/16 00:18:40;;;;;;;8.20;7.40;;;;;;;;;;730333;189;915509;-61
2023/07/16 00:21:05;;;;;;;9.60;8.60;;;;;;;;;;739495;189;918662;-61
2023/07/16 00:23:31;;;;;;;9.20;8.30;;;;;;;;;;709985;195;918906;-61
2023/07/16 00:25:57;;;;;;;10.03;8.90;;;;;;;;;;735200;187;923262;-59
2023/07/16 00:28:23;;;;;;;9.50;8.60;;;;;;;;;;748978;187;834958;-60
2023/07/16 00:30:49;;;;;;;9.67;8.40;;;;;;;;;;738706;187;918896;-60
2023/07/16 00:33:14;;;;;;;13.37;8.83;;;;;;;;;;743891;186;918415;-60
2023/07/16 00:35:40;;;;;;;10.27;8.90;;;;;;;;;;740076;189;918753;-59
2023/07/16 00:38:06;;;;;;;14.07;9.73;;;;;;;;;;741098;188;918993;-60
2023/07/16 00:40:32;;;;;;;10.83;9.60;;;;;;;;;;737436;188;919327;-59
2023/07/16 00:42:58;;;;;;;10.23;9.13;;;;;;;;;;730370;188;919382;-61
2023/07/16 00:45:24;;;;;;;10.50;9.50;;;;;;;;;;743005;188;819060;-60
2023/07/16 00:47:50;;;;;;;12.20;9.30;;;;;;;;;;740478;188;857153;-61
2023/07/16 00:50:15;;;;;;;12.80;10.60;;;;;;;;;;735217;187;920683;-60
2023/07/16 00:52:41;;;;;;;11.00;9.93;;;;;;;;;;749661;187;918903;-60
2023/07/16 00:55:08;;;;;;;11.07;9.90;;;;;;;;;;739949;188;919542;-59
2023/07/16 00:57:33;;;;;;;12.50;9.87;;;;;;;;;;746921;187;862704;-61
2023/07/16 00:59:59;;;;;;;13.10;10.50;;;;;;;;;;740889;188;817261;-60
2023/07/16 01:02:25;;;;;;;11.10;9.60;;;;;;;;;;741681;187;913693;-60
2023/07/16 01:04:51;;;;;;;11.40;10.30;;;;;;;;;;738773;187;920316;-60
2023/07/16 01:07:17;;;;;;;11.50;10.43;;;;;;;;;;740618;187;916459;-59
2023/07/16 01:09:43;;;;;;;11.63;10.07;;;;;;;;;;740338;187;916791;-60
2023/07/16 01:12:08;;;;;;;16.50;10.00;;;;;;;;;;738428;187;917431;-59
2023/07/16 01:14:34;;;;;;;11.77;10.55;;;;;;;;;;741821;187;919565;-60
2023/07/16 01:17:03;;;;;;;13.00;11.70;;;;;;;;;;740433;187;920808;-61
2023/07/16 01:19:29;;;;;;;11.27;10.17;;;;;;;;;;715920;193;919202;-60
2023/07/16 01:21:56;;;;;;;14.90;10.73;;;;;;;;;;721762;194;926622;-60
2023/07/16 01:24:21;;;;;;;12.70;11.37;;;;;;;;;;712886;195;918170;-61
2023/07/16 01:26:48;;;;;;;12.93;11.10;;;;;;;;;;725621;191;919341;-62
2023/07/16 01:29:34;;;;;;;13.83;11.93;;;;;;;;;;726923;189;921849;-61
2023/07/16 01:31:59;;;;;;;13.50;12.10;;;;;;;;;;734453;189;919331;-61
2023/07/16 01:34:25;;;;;;;14.32;12.50;;;;;;;;;;735665;189;918902;-61
2023/07/16 01:36:51;;;;;;;13.70;10.93;;;;;;;;;;717653;195;817057;-62
2023/07/16 01:39:17;;;;;;;12.40;11.30;;;;;;;;;;706493;194;917284;-64
2023/07/16 01:41:43;;;;;;;13.20;12.00;;;;;;;;;;728888;188;918960;-62
2023/07/16 01:44:09;;;;;;;14.43;13.10;;;;;;;;;;739785;187;919271;-61
2023/07/16 01:46:35;;;;;;;13.93;12.53;;;;;;;;;;742619;187;818210;-63
2023/07/16 01:49:01;;;;;;;16.92;14.50;;;;;;;;;;736281;188;922101;-62
2023/07/16 01:51:26;;;;;;;13.70;12.33;;;;;;;;;;738593;187;918917;-62
2023/07/16 01:53:52;;;;;;;14.70;13.37;;;;;;;;;;722269;194;919281;-61
2023/07/16 01:56:18;;;;;;;14.33;13.03;;;;;;;;;;734420;188;917932;-62
2023/07/16 01:58:44;;;;;;;14.50;12.73;;;;;;;;;;737676;188;919359;-62
2023/07/16 02:01:10;;;;;;;15.67;13.93;;;;;;;;;;741909;188;919072;-62
2023/07/16 02:03:36;;;;;;;14.10;12.80;;;;;;;;;;734381;189;919323;-62
2023/07/16 02:06:01;;;;;;;14.20;12.80;;;;;;;;;;735021;189;917672;-62
2023/07/16 02:08:28;;;;;;;14.30;12.93;;;;;;;;;;740342;188;818742;-62
2023/07/16 02:10:54;;;;;;;13.40;12.00;;;;;;;;;;726785;191;919186;-61
2023/07/16 02:13:20;;;;;;;14.93;12.67;;;;;;;;;;715898;194;919353;-62
2023/07/16 02:15:45;;;;;;;15.50;14.00;;;;;;;;;;735483;188;919640;-61
2023/07/16 02:18:11;;;;;;;17.70;14.97;;;;;;;;;;739588;189;915207;-62
2023/07/16 02:20:37;;;;;;;17.20;14.27;;;;;;;;;;735837;188;918717;-62
2023/07/16 02:23:03;;;;;;;15.53;14.13;;;;;;;;;;730103;188;917349;-61
2023/07/16 02:25:29;;;;;;;16.67;14.97;;;;;;;;;;735794;188;918287;-63
2023/07/16 02:27:55;;;;;;;18.35;15.07;;;;;;;;;;709618;194;931275;-62
2023/07/16 02:30:20;;;;;;;15.10;13.60;;;;;;;;;;736318;188;919213;-62
2023/07/16 02:32:46;;;;;;;16.03;14.43;;;;;;;;;;740364;189;919643;-62
2023/07/16 02:35:12;;;;;;;17.27;15.67;;;;;;;;;;715064;192;951357;-62
2023/07/16 02:37:38;;;;;;;17.27;15.40;;;;;;;;;;740971;187;943019;-62
2023/07/16 02:40:04;;;;;;;18.13;15.97;;;;;;;;;;733958;188;915424;-61
2023/07/16 02:42:30;;;;;;;18.00;16.30;;;;;;;;;;741595;188;916101;-62
2023/07/16 02:44:56;;;;;;;19.55;16.75;;;;;;;;;;737101;187;916990;-62
2023/07/16 02:47:22;;;;;;;17.20;15.60;;;;;;;;;;737002;187;917724;-62
2023/07/16 02:49:48;;;;;;;20.10;18.23;;;;;;;;;;740098;189;812819;-61
2023/07/16 02:52:13;;;;;;;17.87;16.27;;;;;;;;;;739116;187;818637;-63
2023/07/16 02:54:39;;;;;;;17.50;15.77;;;;;;;;;;733893;189;918142;-63
2023/07/16 02:57:05;;;;;;;18.37;16.47;;;;;;;;;;718710;194;918789;-63
2023/07/16 02:59:31;;;;;;;19.53;17.60;;;;;;;;;;732240;191;920037;-63
2023/07/16 03:01:57;;;;;;;17.50;15.80;;;;;;;;;;738571;188;932525;-62
2023/07/16 03:04:23;;;;;;;17.17;15.37;;;;;;;;;;735555;189;919432;-64
2023/07/16 03:06:49;;;;;;;22.00;16.73;;;;;;;;;;727232;191;919619;-64
2023/07/16 03:09:14;;;;;;;26.03;17.63;;;;;;;;;;738094;187;937607;-62
2023/07/16 03:11:40;;;;;;;19.47;17.40;;;;;;;;;;742984;187;914326;-62
2023/07/16 03:14:06;;;;;;;20.03;18.17;;;;;;;;;;740802;186;818400;-63
2023/07/16 03:16:32;;;;;;;21.50;19.40;;;;;;;;;;714153;194;918820;-62
2023/07/16 03:18:58;;;;;;;19.07;17.07;;;;;;;;;;731127;188;948030;-62
2023/07/16 03:21:24;;;;;;;19.23;17.27;;;;;;;;;;738077;189;918632;-64
2023/07/16 03:23:49;;;;;;;20.53;18.50;;;;;;;;;;733736;189;916657;-64
2023/07/16 03:26:15;;;;;;;23.77;19.10;;;;;;;;;;735469;189;1018786;-64
2023/07/16 03:28:41;;;;;;;22.30;19.97;;;;;;;;;;738685;187;919243;-63
2023/07/16 03:31:07;;;;;;;20.37;18.40;;;;;;;;;;731305;191;919924;-63
2023/07/16 03:33:33;;;;;;;19.87;17.87;;;;;;;;;;733574;186;862899;-63
2023/07/16 03:35:59;;;;;;;21.70;19.30;;;;;;;;;;741378;187;919475;-63
2023/07/16 03:38:24;;;;;;;19.20;17.40;;;;;;;;;;741058;188;922344;-63
2023/07/16 03:40:50;;;;;;;20.00;18.20;;;;;;;;;;733862;187;875215;-64
2023/07/16 03:43:16;;;;;;;19.52;17.55;;;;;;;;;;736733;187;918852;-65
2023/07/16 03:45:42;;;;;;;20.40;18.40;;;;;;;;;;739845;189;919942;-63
2023/07/16 03:48:08;;;;;;;19.77;17.80;;;;;;;;;;713750;194;918962;-64
2023/07/16 03:50:34;;;;;;;22.50;19.43;;;;;;;;;;732884;188;917628;-63
2023/07/16 03:53:00;;;;;;;20.00;18.10;;;;;;;;;;739691;188;815467;-63
2023/07/16 03:55:25;;;;;;;19.40;17.40;;;;;;;;;;733227;188;917780;-62
2023/07/16 03:57:51;;;;;;;20.67;18.47;;;;;;;;;;735365;189;920026;-63
2023/07/16 04:00:17;;;;;;;21.20;19.20;;;;;;;;;;719157;194;818925;-64
2023/07/16 04:02:43;;;;;;;21.43;19.43;;;;;;;;;;714604;194;911852;-63
2023/07/16 04:05:09;;;;;;;20.17;18.17;;;;;;;;;;734777;188;919371;-64
2023/07/16 04:07:35;;;;;;;24.43;21.93;;;;;;;;;;736594;188;918266;-64
2023/07/16 04:10:01;;;;;;;23.42;21.02;;;;;;;;;;739385;188;919161;-64
2023/07/16 04:12:26;;;;;;;21.90;19.80;;;;;;;;;;737396;186;919227;-65
2023/07/16 04:14:52;;;;;;;20.62;18.17;;;;;;;;;;738884;188;918650;-65
2023/07/16 04:17:18;;;;;;;25.20;18.63;;;;;;;;;;731148;192;921125;-65
2023/07/16 04:19:44;;;;;;;19.37;17.50;;;;;;;;;;715414;194;916690;-64
2023/07/16 04:22:10;;;;;;;21.30;16.50;;;;;;;;;;731726;187;924294;-65
2023/07/16 04:24:36;;;;;;;18.63;16.70;;;;;;;;;;735593;188;920454;-65
2023/07/16 04:27:01;;;;;;;20.13;17.80;;;;;;;;;;740063;188;919609;-65
2023/07/16 04:29:27;;;;;;;16.07;14.67;;;;;;;;;;747679;187;917815;-64
2023/07/16 04:31:53;;;;;;;17.10;15.60;;;;;;;;;;736567;189;920128;-64
2023/07/16 04:34:19;;;;;;;16.50;14.90;;;;;;;;;;738993;188;922539;-64
2023/07/16 04:36:45;;;;;;;16.97;15.47;;;;;;;;;;737234;189;918100;-64
2023/07/16 04:39:11;;;;;;;16.27;14.63;;;;;;;;;;736482;189;920178;-66
2023/07/16 04:41:37;;;;;;;14.90;13.47;;;;;;;;;;740463;187;934432;-65
2023/07/16 04:44:02;;;;;;;13.70;12.30;;;;;;;;;;736142;189;920463;-64
2023/07/16 04:46:30;;;;;;;14.57;13.17;;;;;;;;;;735749;188;921426;-64
2023/07/16 04:48:54;;;;;;;14.27;12.97;;;;;;;;;;740139;187;930160;-65
2023/07/16 04:51:20;;;;;;;13.87;12.23;;;;;;;;;;736024;188;908753;-64
2023/07/16 04:53:46;;;;;;;13.67;10.80;;;;;;;;;;742288;187;914243;-66
2023/07/16 04:56:12;;;;;;;14.00;12.60;;;;;;;;;;736455;189;814152;-65
2023/07/16 04:58:38;;;;;;;11.50;10.40;;;;;;;;;;717509;194;846326;-64
2023/07/16 05:01:04;;;;;;;11.13;10.00;;;;;;;;;;707639;196;820022;-63
2023/07/16 05:03:30;;;;;;;11.17;10.07;;;;;;;;;;728077;188;919686;-65
2023/07/16 05:05:56;;;;;;;13.20;10.80;;;;;;;;;;736320;189;918527;-64
2023/07/16 05:08:22;;;;;;;14.93;9.90;;;;;;;;;;735314;189;818831;-65
2023/07/16 05:10:48;;;;;;;16.97;10.70;;;;;;;;;;709631;194;921984;-65
2023/07/16 05:13:15;;;;;;;17.83;10.97;;;;;;;;;;717037;195;917302;-63
2023/07/16 05:15:40;;;;;;;10.13;9.13;;;;;;;;;;737397;187;918693;-62
2023/07/16 05:18:06;;;;;;;10.67;9.53;;;;;;;;;;740628;187;895004;-62
2023/07/16 05:20:32;;;;;;;11.38;9.80;;;;;;;;;;734671;188;920911;-63
2023/07/16 05:22:57;;;;;;;13.33;9.17;;;;;;;;;;741302;189;918385;-65
2023/07/16 05:25:23;;;;;;;10.32;9.32;;;;;;;;;;737100;188;918812;-65
2023/07/16 05:27:49;;;;;;;10.73;9.73;;;;;;;;;;737969;187;817581;-65
2023/07/16 05:30:15;;;;;;;10.37;9.27;;;;;;;;;;742573;188;865833;-63
2023/07/16 05:32:41;;;;;;;11.57;10.30;;;;;;;;;;717400;190;901260;-63
2023/07/16 05:35:07;;;;;;;11.20;10.10;;;;;;;;;;715495;194;919261;-64
2023/07/16 05:37:33;;;;;;;10.97;9.83;;;;;;;;;;738276;188;918825;-61
2023/07/16 05:39:59;;;;;;;12.40;11.27;;;;;;;;;;730978;188;921739;-64
2023/07/16 05:42:24;;;;;;;12.40;11.20;;;;;;;;;;730986;188;852930;-65
2023/07/16 05:44:50;;;;;;;13.27;10.23;;;;;;;;;;731724;188;919289;-65
2023/07/16 05:47:16;;;;;;;12.03;10.87;;;;;;;;;;719135;194;817691;-65
2023/07/16 05:49:42;;;;;;;14.20;12.23;;;;;;;;;;728268;189;919078;-63
2023/07/16 05:52:09;;;;;;;15.13;12.10;;;;;;;;;;734729;187;919899;-64
2023/07/16 05:54:34;;;;;;;21.00;12.00;;;;;;;;;;743470;188;815040;-65
2023/07/16 05:57:00;;;;;;;16.27;11.77;;;;;;;;;;733729;190;929079;-66
2023/07/16 05:59:25;;;;;;;12.20;11.10;;;;;;;;;;716753;190;915045;-65
2023/07/16 06:01:51;;;;;;;11.30;10.07;;;;;;;;;;716951;195;819475;-63
2023/07/16 06:04:17;;;;;;;12.87;11.63;;;;;;;;;;726198;191;921170;-65
2023/07/16 06:06:43;;;;;;;13.40;10.80;;;;;;;;;;727227;191;921887;-63
2023/07/16 06:09:09;;;;;;;18.27;10.63;;;;;;;;;;743811;187;918048;-63
2023/07/16 06:11:35;;;;;;;11.97;10.47;;;;;;;;;;740612;187;916508;-67
2023/07/16 06:14:01;;;;;;;10.13;9.13;;;;;;;;;;741617;187;916244;-65
2023/07/16 06:16:26;;;;;;;11.40;10.40;;;;;;;;;;737663;185;915326;-62
2023/07/16 06:18:52;;;;;;;12.50;10.43;;;;;;;;;;740144;189;916391;-66
2023/07/16 06:21:18;;;;;;;10.30;9.20;;;;;;;;;;738712;187;919515;-65
2023/07/16 06:23:44;;;;;;;11.23;10.10;;;;;;;;;;738193;188;918724;-63
2023/07/16 06:26:10;;;;;;;12.20;11.10;;;;;;;;;;740488;189;813243;-63
2023/07/16 06:28:36;;;;;;;11.93;10.57;;;;;;;;;;729417;189;813020;-66
2023/07/16 06:31:01;;;;;;;12.87;9.53;;;;;;;;;;733467;189;921590;-66
2023/07/16 06:33:28;;;;;;;15.23;9.20;;;;;;;;;;741133;188;913852;-65
2023/07/16 06:35:54;;;;;;;12.00;10.00;;;;;;;;;;728762;192;817782;-65
2023/07/16 06:38:19;;;;;;;11.30;9.97;;;;;;;;;;736617;188;929801;-66
2023/07/16 06:40:47;;;;;;;13.23;9.87;;;;;;;;;;716810;195;919448;-65
2023/07/16 06:43:12;;;;;;;12.20;9.77;;;;;;;;;;721222;191;906569;-66
2023/07/16 06:45:38;;;;;;;10.80;9.70;;;;;;;;;;739665;187;917362;-64
2023/07/16 06:48:04;;;;;;;10.90;9.80;;;;;;;;;;740829;188;630640;-62
2023/07/16 06:50:29;;;;;;;11.73;8.73;;;;;;;;;;742245;186;626966;-63
2023/07/16 06:52:55;;;;;;;10.90;8.20;;;;;;;;;;739555;188;633774;-65
2023/07/16 06:55:21;;;;;;;18.33;8.50;;;;;;;;;;739128;188;627011;-67
2023/07/16 06:57:47;;;;;;;9.77;8.87;;;;;;;;;;719399;194;627741;-62
2023/07/16 07:00:13;;;;;;;12.37;9.10;;;;;;;;;;738648;188;622622;-66
2023/07/16 07:02:39;;;;;;;9.37;8.47;;;;;;;;;;738977;187;630829;-66
2023/07/16 07:05:05;;;;;;;9.97;9.07;;;;;;;;;;723372;193;631101;-62
2023/07/16 07:07:31;;;;;;;10.80;8.60;;;;;;;;;;747633;187;633925;-63
2023/07/16 07:09:56;;;;;;;9.60;8.70;;;;;;;;;;734597;188;920123;-63
2023/07/16 07:12:22;;;;;;;10.10;9.07;;;;;;;;;;731591;188;939776;-66
2023/07/16 07:14:48;;;;;;;11.97;8.43;;;;;;;;;;712915;194;916256;-65
2023/07/16 07:17:14;;;;;;;16.00;9.73;;;;;;;;;;709778;195;918857;-62
2023/07/16 07:19:40;;;;;;;11.30;8.73;;;;;;;;;;729542;188;919105;-63
2023/07/16 07:22:06;;;;;;;13.20;9.47;;;;;;;;;;734745;189;919469;-65
2023/07/16 07:24:31;;;;;;;11.30;10.20;;;;;;;;;;738785;187;816500;-64
2023/07/16 07:26:57;;;;;;;10.70;9.57;;;;;;;;;;734820;189;920218;-62
2023/07/16 07:29:23;;;;;;;11.07;9.93;;;;;;;;;;717229;192;916059;-62
2023/07/16 07:31:49;;;;;;;10.90;9.90;;;;;;;;;;721486;191;915423;-65
2023/07/16 07:34:15;;;;;;;12.97;10.03;;;;;;;;;;715519;192;938846;-62
2023/07/16 07:36:41;;;;;;;10.50;9.50;;;;;;;;;;738596;187;918334;-66
2023/07/16 07:39:06;;;;;;;9.93;8.87;;;;;;;;;;743882;187;865230;-65
2023/07/16 07:41:32;;;;;;;10.07;9.10;;;;;;;;;;732912;189;919176;-62
2023/07/16 07:43:58;;;;;;;10.47;9.37;;;;;;;;;;736211;186;918757;-62
2023/07/16 07:46:24;;;;;;;9.63;8.73;;;;;;;;;;744614;188;819456;-65
2023/07/16 07:48:50;;;;;;;11.90;9.70;;;;;;;;;;733521;188;919322;-61
2023/07/16 07:51:16;;;;;;;11.53;10.43;;;;;;;;;;738429;189;920411;-66
2023/07/16 07:53:41;;;;;;;11.10;9.87;;;;;;;;;;738675;187;919015;-63
2023/07/16 07:56:07;;;;;;;11.20;9.70;;;;;;;;;;732180;187;819095;-63
2023/07/16 07:58:33;;;;;;;10.63;9.63;;;;;;;;;;736273;186;917623;-63
2023/07/16 08:01:03;;;;;;;11.67;10.47;;;;;;;;;;735562;188;918962;-63
2023/07/16 08:03:29;;;;;;;10.13;9.23;;;;;;;;;;735585;189;917921;-62
2023/07/16 08:05:55;;;;;;;11.13;10.13;;;;;;;;;;740753;187;919154;-63
2023/07/16 08:08:20;;;;;;;11.27;9.80;;;;;;;;;;736179;189;823759;-63
2023/07/16 08:10:46;;;;;;;10.80;9.70;;;;;;;;;;736045;188;918998;-63
2023/07/16 08:13:12;;;;;;;11.27;10.37;;;;;;;;;;735896;188;816493;-63
2023/07/16 08:15:38;;;;;;;15.20;9.20;;;;;;;;;;714359;194;854588;-63
2023/07/16 08:18:04;;;;;;;10.23;9.27;;;;;;;;;;707244;194;919188;-63
2023/07/16 08:20:30;;;;;;;11.23;10.17;;;;;;;;;;739472;187;920212;-64
2023/07/16 08:22:56;;;;;;;10.60;9.27;;;;;;;;;;733406;187;920535;-63
2023/07/16 08:25:21;;;;;;;10.97;9.93;;;;;;;;;;736310;188;921779;-63
2023/07/16 08:27:47;;;;;;;10.60;9.60;;;;;;;;;;745341;187;818283;-63
2023/07/16 08:30:13;;;;;;;11.57;10.07;;;;;;;;;;736754;187;818896;-64
2023/07/16 08:32:39;;;;;;;13.17;9.87;;;;;;;;;;728373;188;918868;-63
2023/07/16 08:35:05;;;;;;;12.07;10.70;;;;;;;;;;740057;189;915879;-63
2023/07/16 08:37:31;;;;;;;11.40;9.87;;;;;;;;;;717831;194;919490;-63
2023/07/16 08:39:57;;;;;;;14.40;9.43;;;;;;;;;;725086;191;918653;-62
2023/07/16 08:42:23;;;;;;;12.60;10.37;;;;;;;;;;719605;192;918698;-63
2023/07/16 08:44:50;;;;;;;11.47;10.37;;;;;;;;;;739559;187;919143;-63
2023/07/16 08:47:15;;;;;;;12.70;11.50;;;;;;;;;;736807;185;924472;-63
2023/07/16 08:49:40;;;;;;;11.47;10.37;;;;;;;;;;735755;188;919113;-63
2023/07/16 08:52:07;;;;;;;13.83;11.57;;;;;;;;;;743704;187;862898;-63
2023/07/16 08:54:33;;;;;;;11.73;10.07;;;;;;;;;;736238;188;864208;-64
2023/07/16 08:56:58;;;;;;;13.03;11.83;;;;;;;;;;737415;188;919142;-63
2023/07/16 08:59:24;;;;;;;12.43;10.50;;;;;;;;;;742803;188;918809;-63
2023/07/16 09:01:50;;;;;;;15.30;10.07;;;;;;;;;;713466;194;832707;-63
2023/07/16 09:04:16;;;;;;;12.53;11.43;;;;;;;;;;712196;195;819252;-62
2023/07/16 09:06:42;;;;;;;13.20;10.63;;;;;;;;;;735303;189;919294;-63
2023/07/16 09:09:08;;;;;;;11.60;10.40;;;;;;;;;;749510;185;918867;-63
2023/07/16 09:11:34;;;;;;;11.10;10.20;;;;;;;;;;736376;187;921325;-62
2023/07/16 09:13:59;;;;;;;14.07;10.45;;;;;;;;;;731080;188;915556;-62
2023/07/16 09:16:25;;;;;;;12.13;10.50;;;;;;;;;;735062;189;919150;-63
2023/07/16 09:18:51;;;;;;;11.20;10.20;;;;;;;;;;733502;188;922569;-64
2023/07/16 09:21:17;;;;;;;12.00;10.80;;;;;;;;;;730426;188;919516;-63
2023/07/16 09:23:43;;;;;;;13.80;11.47;;;;;;;;;;740918;189;828169;-63
2023/07/16 09:26:09;;;;;;;10.83;9.83;;;;;;;;;;710421;194;919276;-63
2023/07/16 09:28:34;;;;;;;18.97;11.60;;;;;;;;;;730714;189;921937;-64
2023/07/16 09:31:03;;;;;;;12.80;10.43;;;;;;;;;;739931;189;918765;-62
2023/07/16 09:33:29;;;;;;;12.20;11.00;;;;;;;;;;740017;189;918441;-64
2023/07/16 09:35:55;;;;;;;12.27;11.07;;;;;;;;;;733932;187;919389;-64
2023/07/16 09:38:21;;;;;;;11.43;10.23;;;;;;;;;;737390;188;921149;-63
2023/07/16 09:40:47;;;;;;;12.13;10.83;;;;;;;;;;743112;187;922119;-63
2023/07/16 09:43:13;;;;;;;10.67;9.57;;;;;;;;;;734238;188;918766;-63
2023/07/16 09:45:38;;;;;;;10.90;9.80;;;;;;;;;;735350;189;919555;-63
2023/07/16 09:48:05;;;;;;;11.40;10.30;;;;;;;;;;738479;189;918286;-63
2023/07/16 09:50:31;;;;;;;13.07;10.00;;;;;;;;;;734407;187;919603;-63
2023/07/16 09:52:57;;;;;;;11.73;9.40;;;;;;;;;;741287;187;822794;-63
2023/07/16 09:55:23;;;;;;;13.03;10.87;;;;;;;;;;734195;187;922949;-63
2023/07/16 09:57:49;;;;;;;12.47;11.17;;;;;;;;;;739597;186;895859;-63
2023/07/16 10:00:15;;;;;;;10.40;9.40;;;;;;;;;;742450;186;938647;-64
2023/07/16 10:02:41;;;;;;;12.63;10.40;;;;;;;;;;744877;185;919129;-62
2023/07/16 10:05:11;;;;;;;12.30;10.30;;;;;;;;;;742337;185;902102;-63
2023/07/16 10:07:37;;;;;;;11.93;10.67;;;;;;;;;;735236;188;832626;-62
2023/07/16 10:10:03;;;;;;;12.20;9.90;;;;;;;;;;735964;188;921600;-63
2023/07/16 10:12:30;;;;;;;12.52;9.65;;;;;;;;;;738769;187;907643;-62
2023/07/16 10:14:57;;;;;;;11.30;10.20;;;;;;;;;;741433;186;924283;-60
2023/07/16 10:17:23;;;;;;;11.30;10.20;;;;;;;;;;737816;185;943472;-62
2023/07/16 10:19:50;;;;;;;14.40;9.88;;;;;;;;;;732104;188;921960;-63
2023/07/16 10:22:16;;;;;;;13.23;10.23;;;;;;;;;;718341;194;934782;-62
2023/07/16 10:24:42;;;;;;;11.73;10.60;;;;;;;;;;709350;195;907416;-61
2023/07/16 10:27:07;;;;;;;9.90;9.00;;;;;;;;;;735577;188;922839;-62
2023/07/16 10:29:36;;;;;;;12.80;10.33;;;;;;;;;;742018;188;921376;-63
2023/07/16 10:31:59;;;;;;;12.03;10.00;;;;;;;;;;740299;187;819132;-61
2023/07/16 10:34:26;;;;;;;10.57;9.47;;;;;;;;;;735602;187;920688;-62
2023/07/16 10:36:51;;;;;;;8.90;8.10;;;;;;;;;;738870;187;918173;-62
2023/07/16 10:39:17;;;;;;;9.00;8.20;;;;;;;;;;735702;188;919918;-63
2023/07/16 10:41:43;;;;;;;9.50;8.60;;;;;;;;;;740163;187;918913;-62
2023/07/16 10:44:08;;;;;;;10.53;8.53;;;;;;;;;;733478;189;1019721;-63
2023/07/16 10:46:34;;;;;;;9.47;8.27;;;;;;;;;;738388;189;915806;-65
2023/07/16 10:49:00;;;;;;;12.20;9.53;;;;;;;;;;728686;188;916608;-63
2023/07/16 10:51:26;;;;;;;9.33;8.03;;;;;;;;;;735470;187;918004;-64
2023/07/16 10:53:52;;;;;;;9.70;8.80;;;;;;;;;;733297;188;920256;-63
2023/07/16 10:56:18;;;;;;;11.20;9.90;;;;;;;;;;733192;188;917775;-64
2023/07/16 10:58:43;;;;;;;18.03;11.10;;;;;;;;;;735471;188;919317;-64
2023/07/16 11:01:09;;;;;;;63.93;15.00;;;;;;;;;;738904;189;918851;-64
2023/07/16 11:03:35;;;;;;;11.73;9.37;;;;;;;;;;716712;194;919620;-65
2023/07/16 11:06:07;;;;;;;12.90;9.67;;;;;;;;;;731340;188;919670;-66
2023/07/16 11:08:33;;;;;;;10.53;9.40;;;;;;;;;;736171;189;808623;-64
2023/07/16 11:10:59;;;;;;;10.70;8.30;;;;;;;;;;738594;189;915458;-65
2023/07/16 11:13:26;;;;;;;10.67;8.10;;;;;;;;;;737121;187;919486;-64
2023/07/16 11:15:52;;;;;;;9.00;8.17;;;;;;;;;;734630;188;922055;-65
2023/07/16 11:18:18;;;;;;;10.10;9.20;;;;;;;;;;735464;188;921303;-63
2023/07/16 11:20:44;;;;;;;14.93;9.13;;;;;;;;;;743192;186;821426;-64
2023/07/16 11:23:10;;;;;;;10.17;8.20;;;;;;;;;;738928;188;820681;-64
2023/07/16 11:25:35;;;;;;;9.63;8.77;;;;;;;;;;715286;194;951795;-63
2023/07/16 11:28:01;;;;;;;14.23;9.20;;;;;;;;;;747019;187;816774;-63
2023/07/16 11:30:28;;;;;;;10.50;7.73;;;;;;;;;;737435;188;918838;-64
2023/07/16 11:32:53;;;;;;;10.23;9.23;;;;;;;;;;726051;188;920161;-64
2023/07/16 11:35:19;;;;;;;11.10;9.50;;;;;;;;;;738635;188;919957;-62
2023/07/16 11:37:45;;;;;;;8.40;7.60;;;;;;;;;;730006;189;919095;-64
2023/07/16 11:40:11;;;;;;;10.07;9.17;;;;;;;;;;733375;188;922307;-63
2023/07/16 11:42:36;;;;;;;11.73;9.37;;;;;;;;;;743440;189;917899;-64
2023/07/16 11:45:02;;;;;;;10.00;8.83;;;;;;;;;;722597;193;716506;-63
2023/07/16 11:47:28;;;;;;;10.30;9.30;;;;;;;;;;739458;187;904418;-63
2023/07/16 11:49:54;;;;;;;13.13;8.77;;;;;;;;;;740331;187;914262;-66
2023/07/16 11:52:21;;;;;;;12.00;9.43;;;;;;;;;;743614;188;814900;-64
2023/07/16 11:54:47;;;;;;;11.13;9.70;;;;;;;;;;733456;187;910650;-63
2023/07/16 11:57:12;;;;;;;10.90;9.03;;;;;;;;;;735746;187;896232;-63
2023/07/16 11:59:38;;;;;;;14.00;9.30;;;;;;;;;;743460;187;623554;-63
2023/07/16 12:02:04;;;;;;;9.33;8.43;;;;;;;;;;734224;189;625844;-64
2023/07/16 12:04:30;;;;;;;12.30;8.57;;;;;;;;;;734088;189;814148;-63
2023/07/16 12:06:56;;;;;;;9.80;8.80;;;;;;;;;;739653;187;932022;-63
2023/07/16 12:09:22;;;;;;;10.10;9.17;;;;;;;;;;736612;189;901640;-64
2023/07/16 12:11:48;;;;;;;11.70;8.80;;;;;;;;;;737461;188;913620;-64
2023/07/16 12:14:13;;;;;;;8.87;8.07;;;;;;;;;;737759;187;921446;-64
2023/07/16 12:16:39;;;;;;;10.00;7.87;;;;;;;;;;740722;188;866726;-64
2023/07/16 12:19:06;;;;;;;9.67;8.00;;;;;;;;;;737024;187;805267;-63
2023/07/16 12:21:32;;;;;;;8.70;7.87;;;;;;;;;;728646;187;920293;-64
2023/07/16 12:23:58;;;;;;;10.50;8.00;;;;;;;;;;735301;189;908660;-65
2023/07/16 12:26:24;;;;;;;7.87;7.17;;;;;;;;;;732795;189;916240;-64
2023/07/16 12:28:49;;;;;;;9.17;8.27;;;;;;;;;;735241;187;889077;-64
2023/07/16 12:31:16;;;;;;;9.87;7.33;;;;;;;;;;722319;194;898103;-64
2023/07/16 12:33:41;;;;;;;9.23;8.20;;;;;;;;;;743472;186;919464;-67
2023/07/16 12:36:07;;;;;;;8.90;7.53;;;;;;;;;;735384;188;996206;-66
2023/07/16 12:38:33;;;;;;;9.53;7.57;;;;;;;;;;736827;188;916260;-64
2023/07/16 12:40:59;;;;;;;11.13;8.07;;;;;;;;;;718719;195;916895;-65
2023/07/16 12:43:25;;;;;;;9.70;6.47;;;;;;;;;;736636;188;923790;-65
2023/07/16 12:45:51;;;;;;;10.50;6.90;;;;;;;;;;709567;194;1013745;-65
2023/07/16 12:48:17;;;;;;;9.33;7.20;;;;;;;;;;736784;188;830297;-66
2023/07/16 12:50:43;;;;;;;8.07;7.27;;;;;;;;;;728870;188;918693;-66
2023/07/16 12:53:09;;;;;;;8.20;7.13;;;;;;;;;;732017;188;809579;-66
2023/07/16 12:55:34;;;;;;;8.05;6.25;;;;;;;;;;720770;194;810035;-66
2023/07/16 12:58:00;;;;;;;7.33;6.63;;;;;;;;;;732581;188;909389;-66
2023/07/16 13:00:26;;;;;;;9.43;6.93;;;;;;;;;;730939;188;919273;-66
2023/07/16 13:02:52;;;;;;;12.47;6.90;;;;;;;;;;732909;188;919449;-66
2023/07/16 13:05:18;;;;;;;8.60;5.77;;;;;;;;;;742785;183;908018;-66
2023/07/16 13:07:44;;;;;;;6.97;6.33;;;;;;;;;;737180;187;931352;-66
2023/07/16 13:10:09;;;;;;;8.18;7.37;;;;;;;;;;731962;189;918980;-67
2023/07/16 13:12:35;;;;;;;9.53;7.20;;;;;;;;;;716433;194;714446;-67
2023/07/16 13:15:01;;;;;;;8.10;6.50;;;;;;;;;;731609;190;920499;-65
2023/07/16 13:17:27;;;;;;;7.43;6.33;;;;;;;;;;736921;188;916387;-67
2023/07/16 13:19:53;;;;;;;11.07;6.53;;;;;;;;;;740010;188;880787;-67
2023/07/16 13:22:19;;;;;;;9.40;7.15;;;;;;;;;;736769;188;919606;-67
2023/07/16 13:24:44;;;;;;;8.77;7.03;;;;;;;;;;734964;189;917706;-67
2023/07/16 13:27:10;;;;;;;8.93;7.18;;;;;;;;;;717465;194;918851;-66
2023/07/16 13:29:36;;;;;;;7.18;6.47;;;;;;;;;;731932;188;819300;-66
2023/07/16 13:32:03;;;;;;;8.60;6.65;;;;;;;;;;734440;189;918903;-66
2023/07/16 13:34:28;;;;;;;15.15;7.35;;;;;;;;;;740011;189;845366;-68
2023/07/16 13:36:54;;;;;;;9.17;7.60;;;;;;;;;;727695;192;918175;-67
2023/07/16 13:39:20;;;;;;;8.30;6.83;;;;;;;;;;708287;195;919053;-66
2023/07/16 13:41:46;;;;;;;7.70;6.83;;;;;;;;;;738223;188;919322;-67
2023/07/16 13:44:11;;;;;;;7.70;6.97;;;;;;;;;;742108;188;958355;-66
2023/07/16 13:46:37;;;;;;;7.70;6.43;;;;;;;;;;718713;192;916797;-66
2023/07/16 13:49:03;;;;;;;8.90;6.60;;;;;;;;;;741977;187;921372;-66
2023/07/16 13:51:29;;;;;;;12.43;8.05;;;;;;;;;;743112;188;805359;-67
2023/07/16 13:53:55;;;;;;;9.07;7.63;;;;;;;;;;733716;188;919355;-66
2023/07/16 13:56:21;;;;;;;8.20;6.40;;;;;;;;;;734417;188;816124;-67
2023/07/16 13:58:47;;;;;;;8.53;7.20;;;;;;;;;;732575;188;917085;-67
2023/07/16 14:01:12;;;;;;;9.13;7.10;;;;;;;;;;733074;189;919311;-66
2023/07/16 14:03:38;;;;;;;8.27;6.20;;;;;;;;;;729806;189;839575;-68
2023/07/16 14:06:04;;;;;;;9.50;7.50;;;;;;;;;;734025;188;918534;-68